sensor_id;sensor_type;location;lat;lon;timestamp;P1;durP1;ratioP1;P2;durP2;ratioP2
67556;SDS011;54387;53.526;49.300;2023-11-21T00:02:25;5.63;;;2.85;;
67556;SDS011;54387;53.526;49.300;2023-11-21T00:04:52;4.68;;;3.35;;
67556;SDS011;54387;53.526;49.300;2023-11-21T00:07:19;7.38;;;3.22;;
67556;SDS011;54387;53.526;49.300;2023-11-21T00:09:46;7.70;;;3.38;;
67556;SDS011;54387;53.526;49.300;2023-11-21T00:12:13;7.90;;;3.30;;
67556;SDS011;54387;53.526;49.300;2023-11-21T00:14:40;8.27;;;3.17;;
67556;SDS011;54387;53.526;49.300;2023-11-21T00:17:07;5.80;;;3.53;;
67556;SDS011;54387;53.526;49.300;2023-11-21T00:19:33;8.13;;;3.45;;
67556;SDS011;54387;53.526;49.300;2023-11-21T00:22:00;12.77;;;3.78;;
67556;SDS011;54387;53.526;49.300;2023-11-21T00:24:26;6.05;;;3.35;;
67556;SDS011;54387;53.526;49.300;2023-11-21T00:26:52;5.25;;;3.38;;
67556;SDS011;54387;53.526;49.300;2023-11-21T00:29:19;5.70;;;3.67;;
67556;SDS011;54387;53.526;49.300;2023-11-21T00:31:45;5.68;;;3.50;;
67556;SDS011;54387;53.526;49.300;2023-11-21T00:34:12;6.95;;;3.97;;
67556;SDS011;54387;53.526;49.300;2023-11-21T00:36:38;4.57;;;3.25;;
67556;SDS011;54387;53.526;49.300;2023-11-21T00:39:04;6.88;;;3.40;;
67556;SDS011;54387;53.526;49.300;2023-11-21T00:41:31;6.10;;;4.05;;
67556;SDS011;54387;53.526;49.300;2023-11-21T00:43:58;9.48;;;3.22;;
67556;SDS011;54387;53.526;49.300;2023-11-21T00:46:25;9.90;;;3.88;;
67556;SDS011;54387;53.526;49.300;2023-11-21T00:48:53;5.45;;;3.50;;
67556;SDS011;54387;53.526;49.300;2023-11-21T00:51:20;5.53;;;3.47;;
67556;SDS011;54387;53.526;49.300;2023-11-21T00:53:47;5.32;;;3.58;;
67556;SDS011;54387;53.526;49.300;2023-11-21T00:56:14;8.13;;;4.50;;
67556;SDS011;54387;53.526;49.300;2023-11-21T00:58:41;6.00;;;3.30;;
67556;SDS011;54387;53.526;49.300;2023-11-21T01:01:15;6.72;;;3.63;;
67556;SDS011;54387;53.526;49.300;2023-11-21T01:03:48;6.50;;;3.40;;
67556;SDS011;54387;53.526;49.300;2023-11-21T01:06:15;7.03;;;4.35;;
67556;SDS011;54387;53.526;49.300;2023-11-21T01:08:42;6.60;;;3.72;;
67556;SDS011;54387;53.526;49.300;2023-11-21T01:11:11;6.90;;;3.72;;
67556;SDS011;54387;53.526;49.300;2023-11-21T01:13:39;10.10;;;4.07;;
67556;SDS011;54387;53.526;49.300;2023-11-21T01:16:06;6.90;;;3.92;;
67556;SDS011;54387;53.526;49.300;2023-11-21T01:18:34;6.82;;;3.83;;
67556;SDS011;54387;53.526;49.300;2023-11-21T01:21:01;5.90;;;3.80;;
67556;SDS011;54387;53.526;49.300;2023-11-21T01:23:27;7.95;;;4.18;;
67556;SDS011;54387;53.526;49.300;2023-11-21T01:25:55;6.72;;;3.67;;
67556;SDS011;54387;53.526;49.300;2023-11-21T01:28:22;7.03;;;3.53;;
67556;SDS011;54387;53.526;49.300;2023-11-21T01:30:49;7.35;;;4.00;;
67556;SDS011;54387;53.526;49.300;2023-11-21T01:33:15;5.45;;;3.40;;
67556;SDS011;54387;53.526;49.300;2023-11-21T01:35:42;7.22;;;3.85;;
67556;SDS011;54387;53.526;49.300;2023-11-21T01:38:09;5.85;;;3.33;;
67556;SDS011;54387;53.526;49.300;2023-11-21T01:40:35;10.75;;;4.28;;
67556;SDS011;54387;53.526;49.300;2023-11-21T01:43:01;6.80;;;3.63;;
67556;SDS011;54387;53.526;49.300;2023-11-21T01:45:29;6.03;;;3.70;;
67556;SDS011;54387;53.526;49.300;2023-11-21T01:47:59;6.07;;;3.80;;
67556;SDS011;54387;53.526;49.300;2023-11-21T01:50:26;5.75;;;3.72;;
67556;SDS011;54387;53.526;49.300;2023-11-21T01:52:53;7.97;;;3.80;;
67556;SDS011;54387;53.526;49.300;2023-11-21T01:55:20;7.05;;;3.88;;
67556;SDS011;54387;53.526;49.300;2023-11-21T01:57:47;5.70;;;4.07;;
67556;SDS011;54387;53.526;49.300;2023-11-21T02:00:14;6.88;;;4.18;;
67556;SDS011;54387;53.526;49.300;2023-11-21T02:02:45;5.55;;;3.33;;
67556;SDS011;54387;53.526;49.300;2023-11-21T02:05:15;7.07;;;4.18;;
67556;SDS011;54387;53.526;49.300;2023-11-21T02:07:43;6.28;;;3.28;;
67556;SDS011;54387;53.526;49.300;2023-11-21T02:10:13;5.90;;;3.67;;
67556;SDS011;54387;53.526;49.300;2023-11-21T02:12:41;7.78;;;4.03;;
67556;SDS011;54387;53.526;49.300;2023-11-21T02:15:12;7.97;;;3.90;;
67556;SDS011;54387;53.526;49.300;2023-11-21T02:17:45;6.38;;;3.65;;
67556;SDS011;54387;53.526;49.300;2023-11-21T02:20:16;5.68;;;3.58;;
67556;SDS011;54387;53.526;49.300;2023-11-21T02:22:44;7.70;;;4.05;;
67556;SDS011;54387;53.526;49.300;2023-11-21T02:25:27;5.65;;;3.50;;
67556;SDS011;54387;53.526;49.300;2023-11-21T02:27:55;6.22;;;3.72;;
67556;SDS011;54387;53.526;49.300;2023-11-21T02:30:23;6.72;;;3.95;;
67556;SDS011;54387;53.526;49.300;2023-11-21T02:32:51;7.00;;;4.18;;
67556;SDS011;54387;53.526;49.300;2023-11-21T02:35:22;7.30;;;4.22;;
67556;SDS011;54387;53.526;49.300;2023-11-21T02:37:51;7.38;;;4.20;;
67556;SDS011;54387;53.526;49.300;2023-11-21T02:40:18;6.78;;;3.67;;
67556;SDS011;54387;53.526;49.300;2023-11-21T02:42:50;6.10;;;4.15;;
67556;SDS011;54387;53.526;49.300;2023-11-21T02:45:18;8.27;;;4.45;;
67556;SDS011;54387;53.526;49.300;2023-11-21T02:47:47;6.72;;;4.20;;
67556;SDS011;54387;53.526;49.300;2023-11-21T02:50:19;7.25;;;4.15;;
67556;SDS011;54387;53.526;49.300;2023-11-21T02:52:46;8.38;;;4.00;;
67556;SDS011;54387;53.526;49.300;2023-11-21T02:55:13;8.50;;;4.35;;
67556;SDS011;54387;53.526;49.300;2023-11-21T02:57:39;7.05;;;4.60;;
67556;SDS011;54387;53.526;49.300;2023-11-21T03:00:06;8.63;;;4.85;;
67556;SDS011;54387;53.526;49.300;2023-11-21T03:02:34;6.72;;;4.10;;
67556;SDS011;54387;53.526;49.300;2023-11-21T03:05:06;7.05;;;4.35;;
67556;SDS011;54387;53.526;49.300;2023-11-21T03:07:35;7.28;;;4.60;;
67556;SDS011;54387;53.526;49.300;2023-11-21T03:10:05;6.10;;;4.40;;
67556;SDS011;54387;53.526;49.300;2023-11-21T03:12:34;8.25;;;4.68;;
67556;SDS011;54387;53.526;49.300;2023-11-21T03:15:01;6.88;;;4.43;;
67556;SDS011;54387;53.526;49.300;2023-11-21T03:17:29;7.53;;;4.60;;
67556;SDS011;54387;53.526;49.300;2023-11-21T03:19:55;9.23;;;4.68;;
67556;SDS011;54387;53.526;49.300;2023-11-21T03:22:23;8.38;;;4.97;;
67556;SDS011;54387;53.526;49.300;2023-11-21T03:24:49;8.98;;;5.10;;
67556;SDS011;54387;53.526;49.300;2023-11-21T03:27:16;6.95;;;4.82;;
67556;SDS011;54387;53.526;49.300;2023-11-21T03:29:43;7.18;;;4.90;;
67556;SDS011;54387;53.526;49.300;2023-11-21T03:32:10;11.38;;;6.30;;
67556;SDS011;54387;53.526;49.300;2023-11-21T03:34:41;10.98;;;5.75;;
67556;SDS011;54387;53.526;49.300;2023-11-21T03:37:22;8.10;;;4.65;;
67556;SDS011;54387;53.526;49.300;2023-11-21T03:39:49;8.20;;;5.45;;
67556;SDS011;54387;53.526;49.300;2023-11-21T03:42:16;11.25;;;6.15;;
67556;SDS011;54387;53.526;49.300;2023-11-21T03:44:43;7.93;;;5.82;;
67556;SDS011;54387;53.526;49.300;2023-11-21T03:47:10;8.75;;;5.25;;
67556;SDS011;54387;53.526;49.300;2023-11-21T03:49:37;8.32;;;4.90;;
67556;SDS011;54387;53.526;49.300;2023-11-21T03:52:03;7.85;;;5.28;;
67556;SDS011;54387;53.526;49.300;2023-11-21T03:54:30;11.23;;;5.43;;
67556;SDS011;54387;53.526;49.300;2023-11-21T03:56:56;8.30;;;5.43;;
67556;SDS011;54387;53.526;49.300;2023-11-21T03:59:23;8.50;;;5.95;;
67556;SDS011;54387;53.526;49.300;2023-11-21T04:01:50;9.77;;;5.90;;
67556;SDS011;54387;53.526;49.300;2023-11-21T04:04:16;7.90;;;5.43;;
67556;SDS011;54387;53.526;49.300;2023-11-21T04:06:43;11.02;;;5.60;;
67556;SDS011;54387;53.526;49.300;2023-11-21T04:09:09;9.55;;;5.43;;
67556;SDS011;54387;53.526;49.300;2023-11-21T04:11:36;9.32;;;5.47;;
67556;SDS011;54387;53.526;49.300;2023-11-21T04:14:02;8.13;;;5.38;;
67556;SDS011;54387;53.526;49.300;2023-11-21T04:16:28;9.65;;;6.00;;
67556;SDS011;54387;53.526;49.300;2023-11-21T04:18:54;12.20;;;5.88;;
67556;SDS011;54387;53.526;49.300;2023-11-21T04:21:21;12.05;;;5.93;;
67556;SDS011;54387;53.526;49.300;2023-11-21T04:23:47;7.85;;;5.28;;
67556;SDS011;54387;53.526;49.300;2023-11-21T04:26:14;9.43;;;6.25;;
67556;SDS011;54387;53.526;49.300;2023-11-21T04:28:40;9.95;;;6.25;;
67556;SDS011;54387;53.526;49.300;2023-11-21T04:31:06;8.80;;;5.78;;
67556;SDS011;54387;53.526;49.300;2023-11-21T04:33:33;9.50;;;6.20;;
67556;SDS011;54387;53.526;49.300;2023-11-21T04:35:59;10.43;;;6.78;;
67556;SDS011;54387;53.526;49.300;2023-11-21T04:38:26;11.38;;;5.68;;
67556;SDS011;54387;53.526;49.300;2023-11-21T04:40:52;9.25;;;5.72;;
67556;SDS011;54387;53.526;49.300;2023-11-21T04:43:18;8.70;;;6.05;;
67556;SDS011;54387;53.526;49.300;2023-11-21T04:45:44;14.40;;;6.05;;
67556;SDS011;54387;53.526;49.300;2023-11-21T04:48:11;11.00;;;6.28;;
67556;SDS011;54387;53.526;49.300;2023-11-21T04:50:40;11.10;;;6.25;;
67556;SDS011;54387;53.526;49.300;2023-11-21T04:53:06;9.52;;;6.43;;
67556;SDS011;54387;53.526;49.300;2023-11-21T04:55:33;10.82;;;6.20;;
67556;SDS011;54387;53.526;49.300;2023-11-21T04:58:00;9.15;;;5.88;;
67556;SDS011;54387;53.526;49.300;2023-11-21T05:00:26;10.13;;;6.30;;
67556;SDS011;54387;53.526;49.300;2023-11-21T05:02:53;11.90;;;6.95;;
67556;SDS011;54387;53.526;49.300;2023-11-21T05:05:19;9.55;;;6.97;;
67556;SDS011;54387;53.526;49.300;2023-11-21T05:07:46;19.70;;;10.98;;
67556;SDS011;54387;53.526;49.300;2023-11-21T05:10:12;10.35;;;7.60;;
67556;SDS011;54387;53.526;49.300;2023-11-21T05:12:43;11.43;;;7.32;;
67556;SDS011;54387;53.526;49.300;2023-11-21T05:15:11;11.27;;;7.22;;
67556;SDS011;54387;53.526;49.300;2023-11-21T05:17:40;12.05;;;7.05;;
67556;SDS011;54387;53.526;49.300;2023-11-21T05:20:08;10.50;;;7.22;;
67556;SDS011;54387;53.526;49.300;2023-11-21T05:22:35;10.63;;;6.80;;
67556;SDS011;54387;53.526;49.300;2023-11-21T05:25:02;11.63;;;6.80;;
67556;SDS011;54387;53.526;49.300;2023-11-21T05:27:29;10.35;;;6.75;;
67556;SDS011;54387;53.526;49.300;2023-11-21T05:29:56;10.25;;;6.50;;
67556;SDS011;54387;53.526;49.300;2023-11-21T05:32:25;13.70;;;7.13;;
67556;SDS011;54387;53.526;49.300;2023-11-21T05:34:52;11.65;;;6.97;;
67556;SDS011;54387;53.526;49.300;2023-11-21T05:37:18;13.48;;;7.15;;
67556;SDS011;54387;53.526;49.300;2023-11-21T05:39:45;12.65;;;7.78;;
67556;SDS011;54387;53.526;49.300;2023-11-21T05:42:12;13.48;;;7.60;;
67556;SDS011;54387;53.526;49.300;2023-11-21T05:44:40;13.35;;;7.85;;
67556;SDS011;54387;53.526;49.300;2023-11-21T05:47:09;12.70;;;7.57;;
67556;SDS011;54387;53.526;49.300;2023-11-21T05:49:36;15.30;;;7.72;;
67556;SDS011;54387;53.526;49.300;2023-11-21T05:52:02;12.45;;;7.70;;
67556;SDS011;54387;53.526;49.300;2023-11-21T05:54:29;12.90;;;7.53;;
67556;SDS011;54387;53.526;49.300;2023-11-21T05:56:55;15.13;;;8.13;;
67556;SDS011;54387;53.526;49.300;2023-11-21T05:59:21;16.02;;;7.95;;
67556;SDS011;54387;53.526;49.300;2023-11-21T06:01:47;17.27;;;9.07;;
67556;SDS011;54387;53.526;49.300;2023-11-21T06:04:14;14.20;;;8.32;;
67556;SDS011;54387;53.526;49.300;2023-11-21T06:06:40;18.60;;;8.27;;
67556;SDS011;54387;53.526;49.300;2023-11-21T06:09:06;15.05;;;8.98;;
67556;SDS011;54387;53.526;49.300;2023-11-21T06:11:34;18.92;;;9.02;;
67556;SDS011;54387;53.526;49.300;2023-11-21T06:14:01;14.48;;;8.30;;
67556;SDS011;54387;53.526;49.300;2023-11-21T06:16:27;17.25;;;8.80;;
67556;SDS011;54387;53.526;49.300;2023-11-21T06:18:54;19.27;;;9.05;;
67556;SDS011;54387;53.526;49.300;2023-11-21T06:21:20;18.92;;;9.18;;
67556;SDS011;54387;53.526;49.300;2023-11-21T06:23:47;15.57;;;9.75;;
67556;SDS011;54387;53.526;49.300;2023-11-21T06:26:13;23.60;;;13.75;;
67556;SDS011;54387;53.526;49.300;2023-11-21T06:28:40;24.33;;;14.70;;
67556;SDS011;54387;53.526;49.300;2023-11-21T06:31:06;29.05;;;15.70;;
67556;SDS011;54387;53.526;49.300;2023-11-21T06:33:33;27.08;;;15.40;;
67556;SDS011;54387;53.526;49.300;2023-11-21T06:35:59;31.00;;;16.75;;
67556;SDS011;54387;53.526;49.300;2023-11-21T06:38:28;27.45;;;16.65;;
67556;SDS011;54387;53.526;49.300;2023-11-21T06:40:56;56.67;;;28.90;;
67556;SDS011;54387;53.526;49.300;2023-11-21T06:43:23;35.25;;;18.75;;
67556;SDS011;54387;53.526;49.300;2023-11-21T06:45:49;36.72;;;20.27;;
67556;SDS011;54387;53.526;49.300;2023-11-21T06:48:17;36.65;;;20.50;;
67556;SDS011;54387;53.526;49.300;2023-11-21T06:50:43;44.80;;;22.88;;
67556;SDS011;54387;53.526;49.300;2023-11-21T06:53:09;48.70;;;22.95;;
67556;SDS011;54387;53.526;49.300;2023-11-21T06:55:35;62.10;;;26.48;;
67556;SDS011;54387;53.526;49.300;2023-11-21T06:58:02;56.55;;;25.02;;
67556;SDS011;54387;53.526;49.300;2023-11-21T07:00:29;59.03;;;25.10;;
67556;SDS011;54387;53.526;49.300;2023-11-21T07:02:55;61.50;;;25.95;;
67556;SDS011;54387;53.526;49.300;2023-11-21T07:05:21;58.95;;;24.15;;
67556;SDS011;54387;53.526;49.300;2023-11-21T07:07:50;47.90;;;21.45;;
67556;SDS011;54387;53.526;49.300;2023-11-21T07:10:16;27.70;;;15.38;;
67556;SDS011;54387;53.526;49.300;2023-11-21T07:12:42;25.67;;;14.77;;
67556;SDS011;54387;53.526;49.300;2023-11-21T07:15:09;25.52;;;13.95;;
67556;SDS011;54387;53.526;49.300;2023-11-21T07:17:35;26.75;;;14.80;;
67556;SDS011;54387;53.526;49.300;2023-11-21T07:20:02;34.05;;;17.13;;
67556;SDS011;54387;53.526;49.300;2023-11-21T07:22:29;25.88;;;14.95;;
67556;SDS011;54387;53.526;49.300;2023-11-21T07:24:55;25.55;;;12.85;;
67556;SDS011;54387;53.526;49.300;2023-11-21T07:27:24;22.85;;;12.95;;
67556;SDS011;54387;53.526;49.300;2023-11-21T07:29:50;24.63;;;13.73;;
67556;SDS011;54387;53.526;49.300;2023-11-21T07:32:20;25.33;;;14.00;;
67556;SDS011;54387;53.526;49.300;2023-11-21T07:34:46;23.33;;;13.60;;
67556;SDS011;54387;53.526;49.300;2023-11-21T07:37:12;62.70;;;25.50;;
67556;SDS011;54387;53.526;49.300;2023-11-21T07:39:39;19.33;;;10.93;;
67556;SDS011;54387;53.526;49.300;2023-11-21T07:42:07;24.98;;;14.40;;
67556;SDS011;54387;53.526;49.300;2023-11-21T07:44:34;32.05;;;18.75;;
67556;SDS011;54387;53.526;49.300;2023-11-21T07:47:00;19.10;;;11.27;;
67556;SDS011;54387;53.526;49.300;2023-11-21T07:49:27;23.40;;;13.55;;
67556;SDS011;54387;53.526;49.300;2023-11-21T07:51:54;23.25;;;14.02;;
67556;SDS011;54387;53.526;49.300;2023-11-21T07:54:20;23.50;;;13.10;;
67556;SDS011;54387;53.526;49.300;2023-11-21T07:56:47;21.42;;;11.85;;
67556;SDS011;54387;53.526;49.300;2023-11-21T07:59:13;23.45;;;13.50;;
67556;SDS011;54387;53.526;49.300;2023-11-21T08:01:40;20.00;;;11.15;;
67556;SDS011;54387;53.526;49.300;2023-11-21T08:04:06;16.52;;;10.30;;
67556;SDS011;54387;53.526;49.300;2023-11-21T08:06:33;15.15;;;9.82;;
67556;SDS011;54387;53.526;49.300;2023-11-21T08:09:00;16.65;;;10.25;;
67556;SDS011;54387;53.526;49.300;2023-11-21T08:11:27;13.20;;;8.35;;
67556;SDS011;54387;53.526;49.300;2023-11-21T08:13:57;16.42;;;9.75;;
67556;SDS011;54387;53.526;49.300;2023-11-21T08:16:24;13.35;;;8.95;;
67556;SDS011;54387;53.526;49.300;2023-11-21T08:18:50;18.25;;;9.63;;
67556;SDS011;54387;53.526;49.300;2023-11-21T08:21:17;17.58;;;10.45;;
67556;SDS011;54387;53.526;49.300;2023-11-21T08:23:44;15.80;;;9.40;;
67556;SDS011;54387;53.526;49.300;2023-11-21T08:26:10;14.52;;;9.40;;
67556;SDS011;54387;53.526;49.300;2023-11-21T08:28:37;14.82;;;8.95;;
67556;SDS011;54387;53.526;49.300;2023-11-21T08:31:03;13.90;;;9.48;;
67556;SDS011;54387;53.526;49.300;2023-11-21T08:33:30;18.23;;;10.63;;
67556;SDS011;54387;53.526;49.300;2023-11-21T08:35:56;13.98;;;8.48;;
67556;SDS011;54387;53.526;49.300;2023-11-21T08:38:22;13.43;;;8.23;;
67556;SDS011;54387;53.526;49.300;2023-11-21T08:40:49;15.85;;;8.68;;
67556;SDS011;54387;53.526;49.300;2023-11-21T08:43:15;14.98;;;8.82;;
67556;SDS011;54387;53.526;49.300;2023-11-21T08:45:45;17.02;;;9.88;;
67556;SDS011;54387;53.526;49.300;2023-11-21T08:48:12;14.40;;;9.60;;
67556;SDS011;54387;53.526;49.300;2023-11-21T08:50:39;15.50;;;9.15;;
67556;SDS011;54387;53.526;49.300;2023-11-21T08:53:05;15.18;;;9.82;;
67556;SDS011;54387;53.526;49.300;2023-11-21T08:55:32;13.73;;;8.52;;
67556;SDS011;54387;53.526;49.300;2023-11-21T08:58:02;16.65;;;8.82;;
67556;SDS011;54387;53.526;49.300;2023-11-21T09:00:31;17.42;;;8.50;;
67556;SDS011;54387;53.526;49.300;2023-11-21T09:03:02;14.82;;;9.35;;
67556;SDS011;54387;53.526;49.300;2023-11-21T09:05:30;12.93;;;7.95;;
67556;SDS011;54387;53.526;49.300;2023-11-21T09:07:56;10.80;;;7.10;;
67556;SDS011;54387;53.526;49.300;2023-11-21T09:10:22;13.20;;;8.25;;
67556;SDS011;54387;53.526;49.300;2023-11-21T09:12:50;13.23;;;7.57;;
67556;SDS011;54387;53.526;49.300;2023-11-21T09:15:17;12.88;;;7.57;;
67556;SDS011;54387;53.526;49.300;2023-11-21T09:17:43;11.15;;;7.47;;
67556;SDS011;54387;53.526;49.300;2023-11-21T09:20:10;11.35;;;6.93;;
67556;SDS011;54387;53.526;49.300;2023-11-21T09:22:36;11.65;;;7.25;;
67556;SDS011;54387;53.526;49.300;2023-11-21T09:25:03;11.20;;;6.90;;
67556;SDS011;54387;53.526;49.300;2023-11-21T09:27:31;11.18;;;6.75;;
67556;SDS011;54387;53.526;49.300;2023-11-21T09:29:57;12.63;;;8.05;;
67556;SDS011;54387;53.526;49.300;2023-11-21T09:32:23;11.63;;;6.85;;
67556;SDS011;54387;53.526;49.300;2023-11-21T09:34:50;10.82;;;6.55;;
67556;SDS011;54387;53.526;49.300;2023-11-21T09:37:16;14.07;;;6.75;;
67556;SDS011;54387;53.526;49.300;2023-11-21T09:39:43;12.27;;;6.70;;
67556;SDS011;54387;53.526;49.300;2023-11-21T09:42:14;12.07;;;6.30;;
67556;SDS011;54387;53.526;49.300;2023-11-21T09:47:37;11.55;;;6.93;;
67556;SDS011;54387;53.526;49.300;2023-11-21T09:50:05;10.45;;;6.53;;
67556;SDS011;54387;53.526;49.300;2023-11-21T09:52:41;12.27;;;7.47;;
67556;SDS011;54387;53.526;49.300;2023-11-21T09:55:38;14.05;;;7.45;;
67556;SDS011;54387;53.526;49.300;2023-11-21T09:58:09;13.13;;;6.47;;
67556;SDS011;54387;53.526;49.300;2023-11-21T10:00:43;13.38;;;6.95;;
67556;SDS011;54387;53.526;49.300;2023-11-21T10:03:11;18.30;;;9.55;;
67556;SDS011;54387;53.526;49.300;2023-11-21T10:05:39;70.25;;;32.78;;
67556;SDS011;54387;53.526;49.300;2023-11-21T10:08:07;8.65;;;6.00;;
67556;SDS011;54387;53.526;49.300;2023-11-21T10:10:38;8.80;;;5.40;;
67556;SDS011;54387;53.526;49.300;2023-11-21T10:13:11;13.07;;;7.22;;
67556;SDS011;54387;53.526;49.300;2023-11-21T10:15:42;10.60;;;6.18;;
67556;SDS011;54387;53.526;49.300;2023-11-21T10:18:14;11.02;;;5.93;;
67556;SDS011;54387;53.526;49.300;2023-11-21T10:20:41;8.60;;;5.55;;
67556;SDS011;54387;53.526;49.300;2023-11-21T10:23:09;8.40;;;5.93;;
67556;SDS011;54387;53.526;49.300;2023-11-21T10:25:40;9.52;;;6.28;;
67556;SDS011;54387;53.526;49.300;2023-11-21T10:28:07;12.65;;;6.75;;
67556;SDS011;54387;53.526;49.300;2023-11-21T10:30:36;14.05;;;6.88;;
67556;SDS011;54387;53.526;49.300;2023-11-21T10:33:04;12.70;;;6.63;;
67556;SDS011;54387;53.526;49.300;2023-11-21T10:35:47;10.95;;;6.57;;
67556;SDS011;54387;53.526;49.300;2023-11-21T10:38:20;11.05;;;6.35;;
67556;SDS011;54387;53.526;49.300;2023-11-21T10:40:49;42.88;;;22.67;;
67556;SDS011;54387;53.526;49.300;2023-11-21T10:43:16;15.02;;;7.70;;
67556;SDS011;54387;53.526;49.300;2023-11-21T10:45:44;10.63;;;6.60;;
67556;SDS011;54387;53.526;49.300;2023-11-21T10:48:12;11.13;;;5.90;;
67556;SDS011;54387;53.526;49.300;2023-11-21T10:50:43;10.13;;;5.90;;
67556;SDS011;54387;53.526;49.300;2023-11-21T10:53:11;8.93;;;5.60;;
67556;SDS011;54387;53.526;49.300;2023-11-21T10:55:38;8.98;;;5.53;;
67556;SDS011;54387;53.526;49.300;2023-11-21T10:58:04;10.85;;;6.38;;
67556;SDS011;54387;53.526;49.300;2023-11-21T11:00:32;10.63;;;5.95;;
67556;SDS011;54387;53.526;49.300;2023-11-21T11:02:59;12.13;;;6.40;;
67556;SDS011;54387;53.526;49.300;2023-11-21T11:05:26;12.25;;;5.72;;
67556;SDS011;54387;53.526;49.300;2023-11-21T11:08:05;9.63;;;6.43;;
67556;SDS011;54387;53.526;49.300;2023-11-21T11:10:33;10.00;;;6.53;;
67556;SDS011;54387;53.526;49.300;2023-11-21T11:13:00;11.85;;;6.53;;
67556;SDS011;54387;53.526;49.300;2023-11-21T11:15:27;13.45;;;6.72;;
67556;SDS011;54387;53.526;49.300;2023-11-21T11:17:54;11.75;;;6.60;;
67556;SDS011;54387;53.526;49.300;2023-11-21T11:20:29;12.27;;;7.05;;
67556;SDS011;54387;53.526;49.300;2023-11-21T11:29:03;11.98;;;6.72;;
67556;SDS011;54387;53.526;49.300;2023-11-21T11:34:31;12.45;;;6.65;;
67556;SDS011;54387;53.526;49.300;2023-11-21T11:37:03;11.82;;;6.22;;
67556;SDS011;54387;53.526;49.300;2023-11-21T11:39:40;13.82;;;7.90;;
67556;SDS011;54387;53.526;49.300;2023-11-21T11:42:12;15.77;;;8.23;;
67556;SDS011;54387;53.526;49.300;2023-11-21T11:44:46;15.90;;;8.43;;
67556;SDS011;54387;53.526;49.300;2023-11-21T11:47:26;14.68;;;8.02;;
67556;SDS011;54387;53.526;49.300;2023-11-21T11:52:46;16.45;;;9.10;;
67556;SDS011;54387;53.526;49.300;2023-11-21T11:55:18;13.27;;;7.88;;
67556;SDS011;54387;53.526;49.300;2023-11-21T11:57:46;15.13;;;8.77;;
67556;SDS011;54387;53.526;49.300;2023-11-21T12:00:16;12.98;;;8.38;;
67556;SDS011;54387;53.526;49.300;2023-11-21T12:03:00;16.05;;;8.95;;
67556;SDS011;54387;53.526;49.300;2023-11-21T12:05:31;14.38;;;8.80;;
67556;SDS011;54387;53.526;49.300;2023-11-21T12:08:02;15.57;;;8.63;;
67556;SDS011;54387;53.526;49.300;2023-11-21T12:10:30;15.73;;;8.15;;
67556;SDS011;54387;53.526;49.300;2023-11-21T12:12:59;16.95;;;9.60;;
67556;SDS011;54387;53.526;49.300;2023-11-21T12:15:26;15.73;;;9.13;;
67556;SDS011;54387;53.526;49.300;2023-11-21T12:17:57;18.73;;;10.32;;
67556;SDS011;54387;53.526;49.300;2023-11-21T12:20:26;17.55;;;10.13;;
67556;SDS011;54387;53.526;49.300;2023-11-21T12:22:54;19.67;;;10.55;;
67556;SDS011;54387;53.526;49.300;2023-11-21T12:25:22;20.73;;;11.38;;
67556;SDS011;54387;53.526;49.300;2023-11-21T12:27:51;23.45;;;11.75;;
67556;SDS011;54387;53.526;49.300;2023-11-21T12:30:18;21.67;;;11.40;;
67556;SDS011;54387;53.526;49.300;2023-11-21T12:32:48;22.50;;;12.25;;
67556;SDS011;54387;53.526;49.300;2023-11-21T12:35:19;21.92;;;11.07;;
67556;SDS011;54387;53.526;49.300;2023-11-21T12:37:47;22.20;;;11.68;;
67556;SDS011;54387;53.526;49.300;2023-11-21T12:40:15;22.20;;;11.15;;
67556;SDS011;54387;53.526;49.300;2023-11-21T12:42:43;18.90;;;9.57;;
67556;SDS011;54387;53.526;49.300;2023-11-21T12:45:27;21.42;;;11.13;;
67556;SDS011;54387;53.526;49.300;2023-11-21T12:47:59;20.70;;;10.70;;
67556;SDS011;54387;53.526;49.300;2023-11-21T12:50:30;19.80;;;11.07;;
67556;SDS011;54387;53.526;49.300;2023-11-21T12:52:59;17.75;;;11.13;;
67556;SDS011;54387;53.526;49.300;2023-11-21T12:55:32;21.48;;;11.15;;
67556;SDS011;54387;53.526;49.300;2023-11-21T12:58:03;22.60;;;12.15;;
67556;SDS011;54387;53.526;49.300;2023-11-21T13:00:35;20.83;;;11.27;;
67556;SDS011;54387;53.526;49.300;2023-11-21T13:03:04;21.42;;;11.75;;
67556;SDS011;54387;53.526;49.300;2023-11-21T13:05:33;22.98;;;12.00;;
67556;SDS011;54387;53.526;49.300;2023-11-21T13:08:04;23.42;;;12.60;;
67556;SDS011;54387;53.526;49.300;2023-11-21T13:10:35;25.48;;;12.50;;
67556;SDS011;54387;53.526;49.300;2023-11-21T13:13:03;23.80;;;12.77;;
67556;SDS011;54387;53.526;49.300;2023-11-21T13:15:34;28.00;;;13.23;;
67556;SDS011;54387;53.526;49.300;2023-11-21T13:18:04;27.67;;;14.00;;
67556;SDS011;54387;53.526;49.300;2023-11-21T13:20:30;25.02;;;13.23;;
67556;SDS011;54387;53.526;49.300;2023-11-21T13:22:58;29.45;;;14.30;;
67556;SDS011;54387;53.526;49.300;2023-11-21T13:25:29;24.67;;;12.13;;
67556;SDS011;54387;53.526;49.300;2023-11-21T13:27:57;25.08;;;12.90;;
67556;SDS011;54387;53.526;49.300;2023-11-21T13:30:28;29.70;;;16.15;;
67556;SDS011;54387;53.526;49.300;2023-11-21T13:33:04;24.05;;;12.75;;
67556;SDS011;54387;53.526;49.300;2023-11-21T13:35:32;23.52;;;12.38;;
67556;SDS011;54387;53.526;49.300;2023-11-21T13:38:09;39.00;;;20.33;;
67556;SDS011;54387;53.526;49.300;2023-11-21T13:40:39;24.73;;;11.68;;
67556;SDS011;54387;53.526;49.300;2023-11-21T13:43:12;25.30;;;12.95;;
67556;SDS011;54387;53.526;49.300;2023-11-21T13:45:42;23.50;;;12.85;;
67556;SDS011;54387;53.526;49.300;2023-11-21T13:48:10;21.48;;;11.80;;
67556;SDS011;54387;53.526;49.300;2023-11-21T13:50:40;25.52;;;12.85;;
67556;SDS011;54387;53.526;49.300;2023-11-21T13:53:14;24.13;;;12.30;;
67556;SDS011;54387;53.526;49.300;2023-11-21T13:55:48;40.00;;;21.58;;
67556;SDS011;54387;53.526;49.300;2023-11-21T13:58:20;23.85;;;12.63;;
67556;SDS011;54387;53.526;49.300;2023-11-21T14:01:12;23.33;;;11.98;;
67556;SDS011;54387;53.526;49.300;2023-11-21T14:03:59;24.48;;;12.20;;
67556;SDS011;54387;53.526;49.300;2023-11-21T14:06:54;21.10;;;12.05;;
67556;SDS011;54387;53.526;49.300;2023-11-21T14:09:20;21.40;;;11.10;;
67556;SDS011;54387;53.526;49.300;2023-11-21T14:11:49;22.73;;;11.88;;
67556;SDS011;54387;53.526;49.300;2023-11-21T14:14:18;20.95;;;10.85;;
67556;SDS011;54387;53.526;49.300;2023-11-21T14:16:46;25.33;;;11.98;;
67556;SDS011;54387;53.526;49.300;2023-11-21T14:19:13;17.15;;;9.05;;
67556;SDS011;54387;53.526;49.300;2023-11-21T14:21:45;19.50;;;11.02;;
67556;SDS011;54387;53.526;49.300;2023-11-21T14:24:14;23.67;;;10.18;;
67556;SDS011;54387;53.526;49.300;2023-11-21T14:26:43;20.77;;;11.75;;
67556;SDS011;54387;53.526;49.300;2023-11-21T14:29:14;21.55;;;11.40;;
67556;SDS011;54387;53.526;49.300;2023-11-21T14:31:45;21.95;;;10.85;;
67556;SDS011;54387;53.526;49.300;2023-11-21T14:34:12;24.45;;;12.23;;
67556;SDS011;54387;53.526;49.300;2023-11-21T14:36:40;20.55;;;10.60;;
67556;SDS011;54387;53.526;49.300;2023-11-21T14:39:06;18.42;;;9.23;;
67556;SDS011;54387;53.526;49.300;2023-11-21T14:41:36;23.63;;;11.98;;
67556;SDS011;54387;53.526;49.300;2023-11-21T14:44:04;22.77;;;11.40;;